sensor_id;sensor_type;location;lat;lon;timestamp;pressure;altitude;pressure_sealevel;temperature;humidity
72798;BME280;61084;55.816;37.036;2022-08-04T00:01:12;99864.28;;;20.23;56.03
72798;BME280;61084;55.816;37.036;2022-08-04T00:03:52;99864.03;;;20.26;56.58
72798;BME280;61084;55.816;37.036;2022-08-04T00:09:02;99871.78;;;20.29;56.07
72798;BME280;61084;55.816;37.036;2022-08-04T00:11:32;99862.09;;;20.28;55.85
72798;BME280;61084;55.816;37.036;2022-08-04T00:14:13;99866.44;;;20.29;56.34
72798;BME280;61084;55.816;37.036;2022-08-04T00:16:40;99871.66;;;20.31;55.98
72798;BME280;61084;55.816;37.036;2022-08-04T00:19:27;99869.69;;;20.33;56.88
72798;BME280;61084;55.816;37.036;2022-08-04T00:22:00;99862.66;;;20.32;56.98
72798;BME280;61084;55.816;37.036;2022-08-04T00:24:29;99866.16;;;20.32;56.86
72798;BME280;61084;55.816;37.036;2022-08-04T00:26:56;99862.66;;;20.32;56.82
72798;BME280;61084;55.816;37.036;2022-08-04T00:29:22;99879.38;;;20.34;56.56
72798;BME280;61084;55.816;37.036;2022-08-04T00:31:49;99874.88;;;20.34;56.71
72798;BME280;61084;55.816;37.036;2022-08-04T00:34:15;99868.59;;;20.35;56.98
72798;BME280;61084;55.816;37.036;2022-08-04T00:36:44;99873.22;;;20.33;57.33
72798;BME280;61084;55.816;37.036;2022-08-04T00:39:11;99870.53;;;20.33;57.25
72798;BME280;61084;55.816;37.036;2022-08-04T00:57:45;99877.56;;;20.34;57.98
72798;BME280;61084;55.816;37.036;2022-08-04T01:00:16;99878.53;;;20.33;57.46
72798;BME280;61084;55.816;37.036;2022-08-04T01:06:01;99882.16;;;20.32;58.01
72798;BME280;61084;55.816;37.036;2022-08-04T01:08:44;99883.03;;;20.33;57.75
72798;BME280;61084;55.816;37.036;2022-08-04T01:16:30;99893.84;;;20.31;57.45
72798;BME280;61084;55.816;37.036;2022-08-04T01:19:10;99896.22;;;20.34;57.71
72798;BME280;61084;55.816;37.036;2022-08-04T01:29:26;99897.22;;;20.33;57.48
72798;BME280;61084;55.816;37.036;2022-08-04T01:34:22;99892.69;;;20.34;57.45
72798;BME280;61084;55.816;37.036;2022-08-04T01:37:06;99900.69;;;20.34;57.92
72798;BME280;61084;55.816;37.036;2022-08-04T01:39:44;99896.50;;;20.31;58.30
72798;BME280;61084;55.816;37.036;2022-08-04T01:42:17;99895.91;;;20.27;57.98
72798;BME280;61084;55.816;37.036;2022-08-04T01:44:46;99895.31;;;20.24;58.07
72798;BME280;61084;55.816;37.036;2022-08-04T01:47:13;99905.13;;;20.23;57.87
72798;BME280;61084;55.816;37.036;2022-08-04T01:49:43;99901.84;;;20.20;58.37
72798;BME280;61084;55.816;37.036;2022-08-04T01:52:16;99909.00;;;20.19;58.42
72798;BME280;61084;55.816;37.036;2022-08-04T01:54:42;99900.28;;;20.17;58.07
72798;BME280;61084;55.816;37.036;2022-08-04T01:57:09;99901.25;;;20.16;57.90
72798;BME280;61084;55.816;37.036;2022-08-04T01:59:36;99905.63;;;20.17;58.21
72798;BME280;61084;55.816;37.036;2022-08-04T02:02:04;99907.28;;;20.18;58.17
72798;BME280;61084;55.816;37.036;2022-08-04T02:04:30;99904.78;;;20.17;57.88
72798;BME280;61084;55.816;37.036;2022-08-04T02:12:26;99910.63;;;20.11;58.66
72798;BME280;61084;55.816;37.036;2022-08-04T02:18:00;99915.25;;;20.09;59.06
72798;BME280;61084;55.816;37.036;2022-08-04T02:20:32;99905.69;;;20.06;58.41
72798;BME280;61084;55.816;37.036;2022-08-04T02:23:02;99899.63;;;20.04;58.62
72798;BME280;61084;55.816;37.036;2022-08-04T02:25:36;99908.47;;;20.05;58.85
72798;BME280;61084;55.816;37.036;2022-08-04T02:28:15;99904.81;;;20.06;58.56
72798;BME280;61084;55.816;37.036;2022-08-04T02:30:51;99902.88;;;20.08;58.49
72798;BME280;61084;55.816;37.036;2022-08-04T02:33:25;99903.72;;;20.08;58.55
72798;BME280;61084;55.816;37.036;2022-08-04T02:35:58;99903.72;;;20.08;58.48
72798;BME280;61084;55.816;37.036;2022-08-04T02:41:21;99901.91;;;20.09;58.21
72798;BME280;61084;55.816;37.036;2022-08-04T02:43:47;99906.41;;;20.08;58.44
72798;BME280;61084;55.816;37.036;2022-08-04T02:46:18;99910.75;;;20.09;58.61
72798;BME280;61084;55.816;37.036;2022-08-04T02:48:45;99913.28;;;20.11;58.65
72798;BME280;61084;55.816;37.036;2022-08-04T02:51:13;99909.53;;;20.13;58.81
72798;BME280;61084;55.816;37.036;2022-08-04T02:53:40;99905.88;;;20.14;58.85
72798;BME280;61084;55.816;37.036;2022-08-04T02:56:07;99915.19;;;20.20;58.69
72798;BME280;61084;55.816;37.036;2022-08-04T02:58:34;99915.09;;;20.21;58.83
72798;BME280;61084;55.816;37.036;2022-08-04T03:01:02;99919.31;;;20.24;58.84
72798;BME280;61084;55.816;37.036;2022-08-04T03:03:48;99921.59;;;20.28;59.54
72798;BME280;61084;55.816;37.036;2022-08-04T03:06:33;99919.38;;;20.34;59.40
72798;BME280;61084;55.816;37.036;2022-08-04T03:26:11;99935.19;;;20.97;58.41
72798;BME280;61084;55.816;37.036;2022-08-04T03:34:27;99945.88;;;21.27;57.30
72798;BME280;61084;55.816;37.036;2022-08-04T03:45:34;99951.03;;;21.68;56.72
72798;BME280;61084;55.816;37.036;2022-08-04T03:53:47;99956.34;;;21.99;56.35
72798;BME280;61084;55.816;37.036;2022-08-04T04:07:22;99973.91;;;22.49;55.98
72798;BME280;61084;55.816;37.036;2022-08-04T04:13:08;99977.44;;;22.69;55.47
72798;BME280;61084;55.816;37.036;2022-08-04T04:16:03;99975.88;;;22.76;55.28
72798;BME280;61084;55.816;37.036;2022-08-04T04:18:45;99977.00;;;22.83;55.18
72798;BME280;61084;55.816;37.036;2022-08-04T04:32:37;99988.78;;;23.09;54.96
72798;BME280;61084;55.816;37.036;2022-08-04T04:35:52;99990.88;;;23.15;54.74
72798;BME280;61084;55.816;37.036;2022-08-04T04:47:28;99990.50;;;23.47;54.21
72798;BME280;61084;55.816;37.036;2022-08-04T04:50:07;99991.13;;;23.58;54.08
72798;BME280;61084;55.816;37.036;2022-08-04T04:52:48;99990.75;;;23.71;54.11
72798;BME280;61084;55.816;37.036;2022-08-04T04:55:21;99993.94;;;23.84;54.03
72798;BME280;61084;55.816;37.036;2022-08-04T04:57:50;99985.84;;;23.93;53.64
72798;BME280;61084;55.816;37.036;2022-08-04T05:00:17;99991.88;;;24.05;53.17
72798;BME280;61084;55.816;37.036;2022-08-04T05:05:47;99997.16;;;24.32;52.49
72798;BME280;61084;55.816;37.036;2022-08-04T05:11:44;99989.53;;;24.63;52.16
72798;BME280;61084;55.816;37.036;2022-08-04T05:13:53;99993.88;;;24.82;51.47
72798;BME280;61084;55.816;37.036;2022-08-04T05:19:50;99993.06;;;25.07;50.87
72798;BME280;61084;55.816;37.036;2022-08-04T05:22:23;100004.22;;;25.20;50.33
72798;BME280;61084;55.816;37.036;2022-08-04T05:24:57;99999.47;;;25.39;50.36
72798;BME280;61084;55.816;37.036;2022-08-04T05:27:33;99996.19;;;25.54;49.69
72798;BME280;61084;55.816;37.036;2022-08-04T05:30:03;99993.88;;;25.67;50.10
72798;BME280;61084;55.816;37.036;2022-08-04T05:32:37;100001.66;;;25.78;48.97
72798;BME280;61084;55.816;37.036;2022-08-04T05:35:11;99991.25;;;25.83;48.63
72798;BME280;61084;55.816;37.036;2022-08-04T05:37:40;99996.16;;;25.95;48.28
72798;BME280;61084;55.816;37.036;2022-08-04T05:40:08;99994.53;;;26.10;48.78
72798;BME280;61084;55.816;37.036;2022-08-04T05:42:38;99995.75;;;26.24;47.89
72798;BME280;61084;55.816;37.036;2022-08-04T05:45:06;100000.31;;;26.32;48.18
72798;BME280;61084;55.816;37.036;2022-08-04T05:47:34;99995.78;;;26.40;47.20
72798;BME280;61084;55.816;37.036;2022-08-04T05:50:05;99992.72;;;26.51;46.98
72798;BME280;61084;55.816;37.036;2022-08-04T05:52:33;99994.94;;;26.64;47.07
72798;BME280;61084;55.816;37.036;2022-08-04T05:55:01;99990.72;;;26.77;47.29
72798;BME280;61084;55.816;37.036;2022-08-04T05:57:30;99998.81;;;26.94;46.66
72798;BME280;61084;55.816;37.036;2022-08-04T05:59:58;99991.53;;;27.10;46.45
72798;BME280;61084;55.816;37.036;2022-08-04T06:02:26;100000.75;;;27.24;46.31
72798;BME280;61084;55.816;37.036;2022-08-04T06:04:53;100004.94;;;27.34;45.84
72798;BME280;61084;55.816;37.036;2022-08-04T06:07:20;100004.31;;;27.40;45.16
72798;BME280;61084;55.816;37.036;2022-08-04T06:09:45;100000.72;;;27.48;45.08
72798;BME280;61084;55.816;37.036;2022-08-04T06:12:20;100000.16;;;27.60;44.95
72798;BME280;61084;55.816;37.036;2022-08-04T06:14:48;100011.06;;;27.75;45.00
72798;BME280;61084;55.816;37.036;2022-08-04T06:17:22;100004.59;;;27.84;44.01
72798;BME280;61084;55.816;37.036;2022-08-04T06:19:51;100009.28;;;27.98;43.87
72798;BME280;61084;55.816;37.036;2022-08-04T06:22:18;100005.53;;;28.07;43.87
72798;BME280;61084;55.816;37.036;2022-08-04T06:24:47;100009.75;;;28.10;43.59
72798;BME280;61084;55.816;37.036;2022-08-04T06:27:15;100002.91;;;28.22;43.27
72798;BME280;61084;55.816;37.036;2022-08-04T06:29:43;100005.84;;;28.35;42.55
72798;BME280;61084;55.816;37.036;2022-08-04T06:32:11;100005.78;;;28.43;42.87
72798;BME280;61084;55.816;37.036;2022-08-04T06:34:51;100006.41;;;28.53;42.45
72798;BME280;61084;55.816;37.036;2022-08-04T06:37:20;100010.91;;;28.61;41.80
72798;BME280;61084;55.816;37.036;2022-08-04T06:39:46;100013.06;;;28.65;41.95
72798;BME280;61084;55.816;37.036;2022-08-04T06:42:13;100012.63;;;28.76;41.57
72798;BME280;61084;55.816;37.036;2022-08-04T06:44:45;100006.13;;;28.85;41.44
72798;BME280;61084;55.816;37.036;2022-08-04T06:47:13;100000.66;;;28.93;41.12
72798;BME280;61084;55.816;37.036;2022-08-04T06:49:45;100010.34;;;29.02;40.87
72798;BME280;61084;55.816;37.036;2022-08-04T06:52:13;100001.50;;;29.08;40.49
72798;BME280;61084;55.816;37.036;2022-08-04T06:54:46;100014.59;;;29.20;40.04
72798;BME280;61084;55.816;37.036;2022-08-04T06:57:14;100005.03;;;29.32;40.69
72798;BME280;61084;55.816;37.036;2022-08-04T06:59:46;100004.91;;;29.40;39.91
72798;BME280;61084;55.816;37.036;2022-08-04T07:02:14;100003.97;;;29.47;39.58
72798;BME280;61084;55.816;37.036;2022-08-04T07:04:45;100000.34;;;29.55;39.21
72798;BME280;61084;55.816;37.036;2022-08-04T07:07:12;100005.47;;;29.64;39.19
72798;BME280;61084;55.816;37.036;2022-08-04T07:09:38;100010.13;;;29.70;40.00
72798;BME280;61084;55.816;37.036;2022-08-04T07:12:06;100002.50;;;29.74;38.55
72798;BME280;61084;55.816;37.036;2022-08-04T07:14:32;100005.00;;;29.75;38.67
72798;BME280;61084;55.816;37.036;2022-08-04T07:17:04;100001.94;;;29.78;38.01
72798;BME280;61084;55.816;37.036;2022-08-04T07:19:31;100006.13;;;29.81;37.98
72798;BME280;61084;55.816;37.036;2022-08-04T07:22:01;100001.63;;;29.88;37.86
72798;BME280;61084;55.816;37.036;2022-08-04T07:24:31;99999.66;;;29.97;37.62
72798;BME280;61084;55.816;37.036;2022-08-04T07:26:57;99996.63;;;30.06;37.96
72798;BME280;61084;55.816;37.036;2022-08-04T07:29:25;100000.19;;;30.07;37.67
72798;BME280;61084;55.816;37.036;2022-08-04T07:31:52;99995.03;;;30.12;37.52
72798;BME280;61084;55.816;37.036;2022-08-04T07:34:19;99988.63;;;30.19;37.33
72798;BME280;61084;55.816;37.036;2022-08-04T07:36:46;100003.31;;;30.25;37.12
72798;BME280;61084;55.816;37.036;2022-08-04T07:39:13;99997.13;;;30.31;36.59
72798;BME280;61084;55.816;37.036;2022-08-04T07:41:40;99991.78;;;30.37;36.26
72798;BME280;61084;55.816;37.036;2022-08-04T07:44:07;99989.34;;;30.42;35.89
72798;BME280;61084;55.816;37.036;2022-08-04T07:46:35;99988.81;;;30.53;36.04
72798;BME280;61084;55.816;37.036;2022-08-04T07:49:02;99984.28;;;30.61;36.24
72798;BME280;61084;55.816;37.036;2022-08-04T07:51:29;99990.41;;;30.69;35.55
72798;BME280;61084;55.816;37.036;2022-08-04T07:53:56;99985.81;;;30.70;35.29
72798;BME280;61084;55.816;37.036;2022-08-04T07:56:22;99989.00;;;30.73;35.35
72798;BME280;61084;55.816;37.036;2022-08-04T07:58:48;99983.63;;;30.80;35.35
72798;BME280;61084;55.816;37.036;2022-08-04T08:01:14;99984.06;;;30.83;34.66
72798;BME280;61084;55.816;37.036;2022-08-04T08:03:41;99980.59;;;30.89;34.62
72798;BME280;61084;55.816;37.036;2022-08-04T08:06:07;99988.09;;;30.87;34.57
72798;BME280;61084;55.816;37.036;2022-08-04T08:08:37;99987.28;;;30.93;33.37
72798;BME280;61084;55.816;37.036;2022-08-04T08:11:04;99985.03;;;30.97;34.39
72798;BME280;61084;55.816;37.036;2022-08-04T08:13:30;99983.19;;;31.04;34.62
72798;BME280;61084;55.816;37.036;2022-08-04T08:15:56;99978.44;;;31.12;34.09
72798;BME280;61084;55.816;37.036;2022-08-04T08:18:23;99972.03;;;31.20;33.53
72798;BME280;61084;55.816;37.036;2022-08-04T08:20:49;99976.88;;;31.24;33.78
72798;BME280;61084;55.816;37.036;2022-08-04T08:23:17;99992.34;;;31.31;32.99
72798;BME280;61084;55.816;37.036;2022-08-04T08:25:43;99988.09;;;31.21;32.90
72798;BME280;61084;55.816;37.036;2022-08-04T08:28:09;99987.94;;;31.23;33.13
72798;BME280;61084;55.816;37.036;2022-08-04T08:30:35;99988.78;;;31.30;33.48
72798;BME280;61084;55.816;37.036;2022-08-04T08:33:06;99983.34;;;31.30;32.29
72798;BME280;61084;55.816;37.036;2022-08-04T08:35:44;99982.13;;;31.33;32.70
72798;BME280;61084;55.816;37.036;2022-08-04T08:38:12;99984.72;;;31.41;30.49
72798;BME280;61084;55.816;37.036;2022-08-04T08:41:03;99996.88;;;31.45;31.92
72798;BME280;61084;55.816;37.036;2022-08-04T08:49:18;99989.19;;;31.55;31.38
72798;BME280;61084;55.816;37.036;2022-08-04T08:58:06;99987.41;;;31.75;31.40
72798;BME280;61084;55.816;37.036;2022-08-04T09:11:18;99993.56;;;31.96;31.70
72798;BME280;61084;55.816;37.036;2022-08-04T09:13:49;99993.38;;;32.05;31.85
72798;BME280;61084;55.816;37.036;2022-08-04T09:16:21;99996.94;;;32.05;31.79
72798;BME280;61084;55.816;37.036;2022-08-04T09:18:58;99998.38;;;32.01;31.08
72798;BME280;61084;55.816;37.036;2022-08-04T09:21:32;99993.97;;;32.00;30.70
72798;BME280;61084;55.816;37.036;2022-08-04T09:24:17;99999.44;;;32.07;31.49
72798;BME280;61084;55.816;37.036;2022-08-04T09:27:01;99999.47;;;32.13;30.87
72798;BME280;61084;55.816;37.036;2022-08-04T09:29:57;100000.50;;;32.12;30.24
72798;BME280;61084;55.816;37.036;2022-08-04T09:35:39;99998.00;;;32.17;30.96
72798;BME280;61084;55.816;37.036;2022-08-04T09:38:22;99993.22;;;32.26;30.98
72798;BME280;61084;55.816;37.036;2022-08-04T09:40:58;99990.50;;;32.26;31.12
72798;BME280;61084;55.816;37.036;2022-08-04T09:43:56;99988.19;;;32.23;28.69
72798;BME280;61084;55.816;37.036;2022-08-04T09:46:45;99982.94;;;32.21;30.64
72798;BME280;61084;55.816;37.036;2022-08-04T09:49:28;99986.53;;;32.28;31.02
72798;BME280;61084;55.816;37.036;2022-08-04T09:55:08;99986.75;;;32.40;30.15
72798;BME280;61084;55.816;37.036;2022-08-04T09:57:56;99984.69;;;32.42;31.11
72798;BME280;61084;55.816;37.036;2022-08-04T10:00:26;99980.53;;;32.52;30.98
72798;BME280;61084;55.816;37.036;2022-08-04T10:02:55;99983.69;;;32.62;31.10
72798;BME280;61084;55.816;37.036;2022-08-04T10:16:27;99980.94;;;32.95;30.21
72798;BME280;61084;55.816;37.036;2022-08-04T10:19:09;99968.38;;;32.94;30.10
72798;BME280;61084;55.816;37.036;2022-08-04T10:27:27;99977.59;;;33.06;30.23
72798;BME280;61084;55.816;37.036;2022-08-04T10:30:02;99968.59;;;33.19;30.33
72798;BME280;61084;55.816;37.036;2022-08-04T10:33:01;99971.28;;;33.32;29.77
72798;BME280;61084;55.816;37.036;2022-08-04T10:35:34;99974.63;;;33.40;29.73
72798;BME280;61084;55.816;37.036;2022-08-04T10:38:21;99964.50;;;33.47;29.26
72798;BME280;61084;55.816;37.036;2022-08-04T10:40:59;99973.97;;;33.45;29.08
72798;BME280;61084;55.816;37.036;2022-08-04T10:43:45;99971.66;;;33.49;29.33
72798;BME280;61084;55.816;37.036;2022-08-04T10:48:50;99968.31;;;33.53;29.56
72798;BME280;61084;55.816;37.036;2022-08-04T10:53:59;99973.34;;;33.36;28.72
72798;BME280;61084;55.816;37.036;2022-08-04T10:57:00;99973.78;;;33.40;28.64
72798;BME280;61084;55.816;37.036;2022-08-04T10:59:44;99966.84;;;33.51;29.07
72798;BME280;61084;55.816;37.036;2022-08-04T11:07:49;99967.78;;;33.76;29.36
72798;BME280;61084;55.816;37.036;2022-08-04T11:10:19;99969.63;;;33.88;29.40
72798;BME280;61084;55.816;37.036;2022-08-04T11:12:47;99982.16;;;34.02;29.61
72798;BME280;61084;55.816;37.036;2022-08-04T11:15:24;99977.13;;;34.06;28.52
72798;BME280;61084;55.816;37.036;2022-08-04T11:17:55;99977.94;;;34.00;28.44
72798;BME280;61084;55.816;37.036;2022-08-04T11:20:32;99981.06;;;34.10;28.96
72798;BME280;61084;55.816;37.036;2022-08-04T11:23:07;99974.09;;;34.21;28.99
72798;BME280;61084;55.816;37.036;2022-08-04T11:26:04;99977.16;;;34.31;28.13
72798;BME280;61084;55.816;37.036;2022-08-04T11:28:44;99981.69;;;34.43;27.89
72798;BME280;61084;55.816;37.036;2022-08-04T11:31:22;99977.88;;;34.51;27.94
72798;BME280;61084;55.816;37.036;2022-08-04T11:34:04;99972.44;;;34.51;27.06
72798;BME280;61084;55.816;37.036;2022-08-04T11:41:59;99964.16;;;34.64;27.92
72798;BME280;61084;55.816;37.036;2022-08-04T11:47:08;99956.91;;;34.51;27.78
72798;BME280;61084;55.816;37.036;2022-08-04T11:49:41;99958.69;;;34.33;27.98
72798;BME280;61084;55.816;37.036;2022-08-04T11:52:11;99959.53;;;34.33;27.94
72798;BME280;61084;55.816;37.036;2022-08-04T11:54:39;99952.34;;;34.39;27.67
72798;BME280;61084;55.816;37.036;2022-08-04T11:57:06;99953.72;;;34.54;28.17
72798;BME280;61084;55.816;37.036;2022-08-04T11:59:34;99957.25;;;34.61;27.91
72798;BME280;61084;55.816;37.036;2022-08-04T12:02:18;99958.03;;;34.68;27.72
72798;BME280;61084;55.816;37.036;2022-08-04T12:04:59;99947.59;;;34.83;27.23
72798;BME280;61084;55.816;37.036;2022-08-04T12:07:50;99941.22;;;34.89;26.41
72798;BME280;61084;55.816;37.036;2022-08-04T12:11:24;99948.91;;;34.99;26.88
72798;BME280;61084;55.816;37.036;2022-08-04T12:13:40;99948.63;;;34.82;26.50
72798;BME280;61084;55.816;37.036;2022-08-04T12:22:22;99945.59;;;34.72;27.16
72798;BME280;61084;55.816;37.036;2022-08-04T12:24:53;99936.44;;;34.85;27.72
72798;BME280;61084;55.816;37.036;2022-08-04T12:27:26;99937.97;;;34.81;27.94
72798;BME280;61084;55.816;37.036;2022-08-04T12:29:54;99938.81;;;34.81;27.98
72798;BME280;61084;55.816;37.036;2022-08-04T12:32:30;99938.50;;;34.89;27.99
72798;BME280;61084;55.816;37.036;2022-08-04T12:35:13;99934.66;;;34.97;26.81
72798;BME280;61084;55.816;37.036;2022-08-04T12:38:11;99934.84;;;35.02;25.69
72798;BME280;61084;55.816;37.036;2022-08-04T12:40:54;99940.16;;;35.15;26.62
72798;BME280;61084;55.816;37.036;2022-08-04T12:46:04;99925.06;;;35.31;26.72
72798;BME280;61084;55.816;37.036;2022-08-04T12:48:32;99930.38;;;35.44;26.65
72798;BME280;61084;55.816;37.036;2022-08-04T12:51:00;99919.06;;;35.58;27.08
72798;BME280;61084;55.816;37.036;2022-08-04T12:53:29;99930.44;;;35.74;26.63
72798;BME280;61084;55.816;37.036;2022-08-04T12:55:57;99925.03;;;35.85;26.53
72798;BME280;61084;55.816;37.036;2022-08-04T12:58:26;99928.97;;;35.89;26.47
72798;BME280;61084;55.816;37.036;2022-08-04T13:00:55;99931.19;;;35.99;26.27
72798;BME280;61084;55.816;37.036;2022-08-04T13:03:28;99928.34;;;36.05;25.84
72798;BME280;61084;55.816;37.036;2022-08-04T13:05:55;99927.16;;;36.01;26.34
72798;BME280;61084;55.816;37.036;2022-08-04T13:08:22;99936.28;;;35.95;26.56
72798;BME280;61084;55.816;37.036;2022-08-04T13:10:52;99935.09;;;35.73;26.08
72798;BME280;61084;55.816;37.036;2022-08-04T13:13:24;99931.31;;;35.56;25.74
72798;BME280;61084;55.816;37.036;2022-08-04T13:15:59;99925.22;;;35.36;26.28
72798;BME280;61084;55.816;37.036;2022-08-04T13:18:28;99931.59;;;35.30;26.81
72798;BME280;61084;55.816;37.036;2022-08-04T13:20:56;99923.34;;;35.36;26.69
72798;BME280;61084;55.816;37.036;2022-08-04T13:23:31;99928.25;;;35.46;27.39
72798;BME280;61084;55.816;37.036;2022-08-04T13:25:57;99928.03;;;35.66;27.42
72798;BME280;61084;55.816;37.036;2022-08-04T13:28:25;99923.69;;;35.76;26.73
72798;BME280;61084;55.816;37.036;2022-08-04T13:30:55;99926.09;;;35.84;26.69
72798;BME280;61084;55.816;37.036;2022-08-04T13:33:37;99924.88;;;35.98;25.90
72798;BME280;61084;55.816;37.036;2022-08-04T13:36:06;99918.59;;;36.09;26.10
72798;BME280;61084;55.816;37.036;2022-08-04T13:38:35;99909.47;;;36.15;26.56
72798;BME280;61084;55.816;37.036;2022-08-04T13:41:04;99908.75;;;36.20;25.74
72798;BME280;61084;55.816;37.036;2022-08-04T13:43:53;99908.19;;;36.29;24.99
72798;BME280;61084;55.816;37.036;2022-08-04T13:46:24;99905.56;;;36.34;25.99
72798;BME280;61084;55.816;37.036;2022-08-04T13:48:51;99903.47;;;36.37;26.13
72798;BME280;61084;55.816;37.036;2022-08-04T13:51:19;99897.50;;;36.40;25.95
72798;BME280;61084;55.816;37.036;2022-08-04T13:53:55;99895.59;;;36.40;25.58
72798;BME280;61084;55.816;37.036;2022-08-04T13:56:21;99897.06;;;36.43;25.98
72798;BME280;61084;55.816;37.036;2022-08-04T13:58:53;99892.44;;;36.43;25.49
72798;BME280;61084;55.816;37.036;2022-08-04T14:01:25;99884.91;;;36.39;24.96
72798;BME280;61084;55.816;37.036;2022-08-04T14:04:11;99886.66;;;36.33;25.44
72798;BME280;61084;55.816;37.036;2022-08-04T14:09:31;99885.69;;;36.16;26.25
72798;BME280;61084;55.816;37.036;2022-08-04T14:12:09;99881.25;;;36.03;25.89
72798;BME280;61084;55.816;37.036;2022-08-04T14:14:44;99886.06;;;35.90;26.16
72798;BME280;61084;55.816;37.036;2022-08-04T14:17:13;99886.09;;;35.72;26.71
72798;BME280;61084;55.816;37.036;2022-08-04T14:25:06;99875.22;;;35.17;26.72
72798;BME280;61084;55.816;37.036;2022-08-04T14:27:46;99878.63;;;34.95;26.74
72798;BME280;61084;55.816;37.036;2022-08-04T14:33:05;99881.88;;;34.67;27.26
72798;BME280;61084;55.816;37.036;2022-08-04T14:35:32;99879.91;;;34.49;27.49
72798;BME280;61084;55.816;37.036;2022-08-04T14:38:01;99880.66;;;34.32;27.45
72798;BME280;61084;55.816;37.036;2022-08-04T14:40:29;99875.72;;;34.22;28.11
72798;BME280;61084;55.816;37.036;2022-08-04T14:42:56;99885.06;;;34.08;28.65
72798;BME280;61084;55.816;37.036;2022-08-04T14:45:41;99883.19;;;33.95;28.93
72798;BME280;61084;55.816;37.036;2022-08-04T14:48:12;99885.00;;;33.77;28.91
72798;BME280;61084;55.816;37.036;2022-08-04T14:50:44;99886.13;;;33.63;29.23
72798;BME280;61084;55.816;37.036;2022-08-04T14:53:20;99890.38;;;33.52;29.56
72798;BME280;61084;55.816;37.036;2022-08-04T14:55:49;99887.47;;;33.40;29.54
72798;BME280;61084;55.816;37.036;2022-08-04T14:58:20;99883.34;;;33.25;29.86
72798;BME280;61084;55.816;37.036;2022-08-04T15:00:47;99887.38;;;33.09;30.72
72798;BME280;61084;55.816;37.036;2022-08-04T15:03:13;99893.84;;;32.95;30.50
72798;BME280;61084;55.816;37.036;2022-08-04T15:05:41;99889.91;;;32.78;31.31
72798;BME280;61084;55.816;37.036;2022-08-04T15:08:08;99889.75;;;32.60;32.09
72798;BME280;61084;55.816;37.036;2022-08-04T15:10:34;99883.88;;;32.43;32.40
72798;BME280;61084;55.816;37.036;2022-08-04T15:13:01;99881.59;;;32.27;32.01
72798;BME280;61084;55.816;37.036;2022-08-04T15:15:27;99889.72;;;32.14;32.37
72798;BME280;61084;55.816;37.036;2022-08-04T15:17:54;99885.13;;;32.02;32.93
72798;BME280;61084;55.816;37.036;2022-08-04T15:20:20;99889.66;;;31.88;32.59
72798;BME280;61084;55.816;37.036;2022-08-04T15:22:47;99882.31;;;31.75;33.27
72798;BME280;61084;55.816;37.036;2022-08-04T15:25:14;99881.47;;;31.68;33.90
72798;BME280;61084;55.816;37.036;2022-08-04T15:27:41;99890.22;;;31.64;33.98
72798;BME280;61084;55.816;37.036;2022-08-04T15:30:12;99890.19;;;31.57;34.25
72798;BME280;61084;55.816;37.036;2022-08-04T15:32:47;99887.91;;;31.61;34.03
72798;BME280;61084;55.816;37.036;2022-08-04T15:35:19;99889.63;;;31.75;34.53
72798;BME280;61084;55.816;37.036;2022-08-04T15:43:10;99891.84;;;32.51;35.13
72798;BME280;61084;55.816;37.036;2022-08-04T15:53:26;99894.22;;;35.12;32.46
72798;BME280;61084;55.816;37.036;2022-08-04T15:55:53;99893.09;;;34.77;32.33
72798;BME280;61084;55.816;37.036;2022-08-04T15:58:20;99892.13;;;34.40;32.13
72798;BME280;61084;55.816;37.036;2022-08-04T16:19:09;99900.91;;;31.85;35.95
72798;BME280;61084;55.816;37.036;2022-08-04T16:21:49;99897.72;;;31.62;35.99
72798;BME280;61084;55.816;37.036;2022-08-04T16:24:20;99909.09;;;31.38;36.16
72798;BME280;61084;55.816;37.036;2022-08-04T16:26:49;99902.34;;;31.20;36.09
72798;BME280;61084;55.816;37.036;2022-08-04T16:34:56;99908.69;;;30.72;37.93
72798;BME280;61084;55.816;37.036;2022-08-04T16:37:37;99906.03;;;30.51;37.97
72798;BME280;61084;55.816;37.036;2022-08-04T16:40:28;99910.44;;;30.31;38.53
72798;BME280;61084;55.816;37.036;2022-08-04T16:43:03;99912.16;;;30.17;38.20
72798;BME280;61084;55.816;37.036;2022-08-04T16:48:28;99919.16;;;29.91;38.90
72798;BME280;61084;55.816;37.036;2022-08-04T16:51:05;99915.66;;;29.75;38.58
72798;BME280;61084;55.816;37.036;2022-08-04T16:53:34;99920.06;;;29.62;38.80
72798;BME280;61084;55.816;37.036;2022-08-04T16:56:00;99922.13;;;29.45;38.80
72798;BME280;61084;55.816;37.036;2022-08-04T16:58:29;99929.28;;;29.32;38.85
72798;BME280;61084;55.816;37.036;2022-08-04T17:00:56;99924.50;;;29.19;39.09
72798;BME280;61084;55.816;37.036;2022-08-04T17:03:23;99918.22;;;29.04;38.69
72798;BME280;61084;55.816;37.036;2022-08-04T17:05:49;99922.78;;;28.89;39.31
72798;BME280;61084;55.816;37.036;2022-08-04T17:08:15;99922.97;;;28.73;39.24
72798;BME280;61084;55.816;37.036;2022-08-04T17:10:46;99922.13;;;28.58;39.47
72798;BME280;61084;55.816;37.036;2022-08-04T17:13:30;99930.44;;;28.48;40.15
72798;BME280;61084;55.816;37.036;2022-08-04T17:16:08;99932.25;;;28.33;40.21
72798;BME280;61084;55.816;37.036;2022-08-04T17:18:37;99927.63;;;28.19;39.78
72798;BME280;61084;55.816;37.036;2022-08-04T17:24:05;99942.38;;;27.86;40.21
72798;BME280;61084;55.816;37.036;2022-08-04T17:26:33;99939.56;;;27.71;40.43
72798;BME280;61084;55.816;37.036;2022-08-04T17:28:59;99941.84;;;27.59;40.67
72798;BME280;61084;55.816;37.036;2022-08-04T17:31:27;99939.53;;;27.48;40.91